createdAt,value
2023-01-15T00:00:28.471Z,980
2023-01-15T00:01:35.788Z,980
2023-01-15T00:02:42.760Z,980
2023-01-15T00:03:49.949Z,980
2023-01-15T00:04:56.802Z,980
2023-01-15T00:06:04.175Z,980
2023-01-15T00:07:11.207Z,980
2023-01-15T00:08:18.679Z,980
2023-01-15T00:09:25.994Z,980
2023-01-15T00:10:33.174Z,980
2023-01-15T00:11:40.288Z,980
2023-01-15T00:12:47.500Z,980
2023-01-15T00:13:54.670Z,980
2023-01-15T00:15:01.712Z,980
2023-01-15T00:16:08.874Z,980
2023-01-15T00:17:15.955Z,980
2023-01-15T00:18:23.141Z,980
2023-01-15T00:19:31.414Z,980
2023-01-15T00:20:38.531Z,980
2023-01-15T00:21:45.679Z,980
2023-01-15T00:22:52.667Z,980
2023-01-15T00:23:59.806Z,980
2023-01-15T00:25:12.067Z,980
2023-01-15T00:26:24.351Z,980
2023-01-15T00:27:37.482Z,980
2023-01-15T00:28:44.754Z,980
2023-01-15T00:29:51.927Z,979
2023-01-15T00:30:58.859Z,979
2023-01-15T00:32:06.022Z,979
2023-01-15T00:33:13.167Z,979
2023-01-15T00:34:20.284Z,979
2023-01-15T00:35:27.535Z,979
2023-01-15T00:36:34.606Z,979
2023-01-15T00:37:41.822Z,979
2023-01-15T00:38:48.932Z,979
2023-01-15T00:39:56.587Z,979
2023-01-15T00:41:03.658Z,979
2023-01-15T00:42:11.228Z,979
2023-01-15T00:43:18.415Z,979
2023-01-15T00:44:25.539Z,979
2023-01-15T00:45:32.680Z,979
2023-01-15T00:46:39.968Z,979
2023-01-15T00:47:47.162Z,979
2023-01-15T00:48:54.578Z,979
2023-01-15T00:50:01.684Z,979
2023-01-15T00:51:08.797Z,979
2023-01-15T00:52:15.963Z,979
2023-01-15T00:53:23.164Z,979
2023-01-15T00:54:30.392Z,979
2023-01-15T00:55:37.463Z,979
2023-01-15T00:56:44.598Z,979
2023-01-15T00:57:51.963Z,979
2023-01-15T00:58:58.768Z,979
2023-01-15T01:00:06.088Z,979
2023-01-15T01:01:13.671Z,979
2023-01-15T01:02:20.889Z,979
2023-01-15T01:03:27.876Z,979
2023-01-15T01:04:35.033Z,979
2023-01-15T01:05:42.234Z,979
2023-01-15T01:06:49.376Z,979
2023-01-15T01:07:56.415Z,979
2023-01-15T01:09:03.568Z,979
2023-01-15T01:10:11.608Z,979
2023-01-15T01:11:18.810Z,979
2023-01-15T01:12:26.436Z,979
2023-01-15T01:13:34.796Z,979
2023-01-15T01:14:41.910Z,979
2023-01-15T01:15:49.110Z,979
2023-01-15T01:16:56.037Z,979
2023-01-15T01:18:03.209Z,979
2023-01-15T01:19:10.403Z,979
2023-01-15T01:20:17.648Z,979
2023-01-15T01:21:24.731Z,979
2023-01-15T01:22:33.839Z,979
2023-01-15T01:23:41.487Z,979
2023-01-15T01:24:48.776Z,979
2023-01-15T01:25:55.693Z,979
2023-01-15T01:27:02.869Z,979
2023-01-15T01:28:10.300Z,979
2023-01-15T01:29:17.221Z,979
2023-01-15T01:30:24.291Z,979
2023-01-15T01:31:31.500Z,979
2023-01-15T01:32:38.582Z,979
2023-01-15T01:33:48.794Z,979
2023-01-15T01:34:55.770Z,979
2023-01-15T01:36:02.990Z,979
2023-01-15T01:37:10.110Z,979
2023-01-15T01:38:17.246Z,979
2023-01-15T01:39:24.361Z,979
2023-01-15T01:40:31.559Z,979
2023-01-15T01:41:38.698Z,979
2023-01-15T01:42:45.905Z,979
2023-01-15T01:43:53.133Z,979
2023-01-15T01:45:08.115Z,979
2023-01-15T01:46:20.882Z,979
2023-01-15T01:47:28.094Z,979
2023-01-15T01:48:35.316Z,979
2023-01-15T01:49:42.509Z,979
2023-01-15T01:50:49.477Z,979
2023-01-15T01:51:56.438Z,979
2023-01-15T01:53:03.642Z,978
2023-01-15T01:54:10.798Z,978
2023-01-15T01:55:17.986Z,978
2023-01-15T01:56:25.110Z,978
2023-01-15T01:57:32.262Z,978
2023-01-15T01:58:39.672Z,978
2023-01-15T01:59:46.566Z,978
2023-01-15T02:00:53.648Z,978
2023-01-15T02:02:00.884Z,978
2023-01-15T02:03:07.916Z,978
2023-01-15T02:04:16.001Z,978
2023-01-15T02:05:23.253Z,978
2023-01-15T02:06:33.490Z,978
2023-01-15T02:07:40.671Z,978
2023-01-15T02:08:47.741Z,978
2023-01-15T02:09:54.749Z,978
2023-01-15T02:11:01.930Z,978
2023-01-15T02:12:09.329Z,978
2023-01-15T02:13:26.451Z,978
2023-01-15T02:14:38.753Z,978
2023-01-15T02:15:56.405Z,978
2023-01-15T02:17:11.722Z,978
2023-01-15T02:18:21.864Z,978
2023-01-15T02:19:31.633Z,978
2023-01-15T02:20:43.882Z,978
2023-01-15T02:22:01.145Z,978
2023-01-15T02:23:08.248Z,978
2023-01-15T02:24:23.556Z,978
2023-01-15T02:25:35.822Z,978
2023-01-15T02:26:53.163Z,978
2023-01-15T02:28:05.313Z,978
2023-01-15T02:29:15.017Z,978
2023-01-15T02:30:22.148Z,978
2023-01-15T02:31:29.297Z,978
2023-01-15T02:32:41.603Z,978
2023-01-15T02:33:53.778Z,978
2023-01-15T02:35:03.356Z,978
2023-01-15T02:36:18.288Z,978
2023-01-15T02:37:25.409Z,978
2023-01-15T02:38:32.429Z,978
2023-01-15T02:39:39.667Z,978
2023-01-15T02:40:46.818Z,978
2023-01-15T02:41:53.990Z,978
2023-01-15T02:43:01.070Z,978
2023-01-15T02:44:08.211Z,978
2023-01-15T02:45:15.233Z,978
2023-01-15T02:46:22.494Z,978
2023-01-15T02:47:29.550Z,978
2023-01-15T02:48:36.690Z,978
2023-01-15T02:49:43.980Z,978
2023-01-15T02:50:51.140Z,978
2023-01-15T02:52:01.132Z,978
2023-01-15T02:53:10.828Z,978
2023-01-15T02:54:17.970Z,978
2023-01-15T02:55:25.196Z,978
2023-01-15T02:56:32.305Z,978
2023-01-15T02:57:42.044Z,978
2023-01-15T02:58:49.232Z,978
2023-01-15T02:59:56.216Z,978
2023-01-15T03:01:03.433Z,978
2023-01-15T03:02:13.633Z,978
2023-01-15T03:03:23.319Z,978
2023-01-15T03:04:30.373Z,978
2023-01-15T03:05:45.656Z,978
2023-01-15T03:06:53.097Z,978
2023-01-15T03:08:03.058Z,978
2023-01-15T03:09:10.279Z,978
2023-01-15T03:10:17.259Z,978
2023-01-15T03:11:24.369Z,978
2023-01-15T03:12:31.513Z,978
2023-01-15T03:13:41.760Z,978
2023-01-15T03:14:53.988Z,978
2023-01-15T03:16:11.252Z,978
2023-01-15T03:17:25.978Z,978
2023-01-15T03:18:38.230Z,978
2023-01-15T03:19:51.038Z,978
2023-01-15T03:20:58.902Z,978
2023-01-15T03:22:05.144Z,978
2023-01-15T03:23:20.523Z,978
2023-01-15T03:24:27.661Z,978
2023-01-15T03:25:37.346Z,978
2023-01-15T03:26:44.470Z,978
2023-01-15T03:27:51.662Z,978
2023-01-15T03:28:58.575Z,978
2023-01-15T03:30:05.688Z,978
2023-01-15T03:31:18.043Z,978
2023-01-15T03:32:25.192Z,978
2023-01-15T03:33:32.412Z,978
2023-01-15T03:34:39.551Z,978
2023-01-15T03:35:49.688Z,978
2023-01-15T03:36:59.803Z,978
2023-01-15T03:38:06.926Z,978
2023-01-15T03:39:14.037Z,977
2023-01-15T03:40:21.156Z,978
2023-01-15T03:41:28.313Z,978
2023-01-15T03:42:43.614Z,978
2023-01-15T03:43:53.941Z,978
2023-01-15T03:45:06.516Z,978
2023-01-15T03:46:16.280Z,978
2023-01-15T03:47:31.515Z,978
2023-01-15T03:48:43.794Z,978
2023-01-15T03:49:50.840Z,978
2023-01-15T03:51:00.960Z,978
2023-01-15T03:52:16.267Z,978
2023-01-15T03:53:33.512Z,978
2023-01-15T03:54:49.156Z,978
2023-01-15T03:55:56.351Z,978
2023-01-15T03:57:03.521Z,978
2023-01-15T03:58:13.773Z,978
2023-01-15T03:59:23.453Z,978
2023-01-15T04:00:30.594Z,978
2023-01-15T04:01:38.007Z,978
2023-01-15T04:02:45.024Z,978
2023-01-15T04:03:52.146Z,978
2023-01-15T04:04:59.039Z,978
2023-01-15T04:06:06.254Z,978
2023-01-15T04:07:13.364Z,977
2023-01-15T04:08:20.556Z,977
2023-01-15T04:09:27.675Z,978
2023-01-15T04:10:35.248Z,978
2023-01-15T04:11:42.021Z,977
2023-01-15T04:12:49.237Z,977
2023-01-15T04:13:56.140Z,977
2023-01-15T04:15:03.372Z,977
2023-01-15T04:16:11.012Z,977
2023-01-15T04:17:18.221Z,977
2023-01-15T04:18:25.349Z,977
2023-01-15T04:19:32.475Z,977
2023-01-15T04:20:39.684Z,977
2023-01-15T04:21:46.835Z,977
2023-01-15T04:22:53.992Z,977
2023-01-15T04:24:01.139Z,977
2023-01-15T04:25:08.680Z,977
2023-01-15T04:26:15.771Z,977
2023-01-15T04:27:22.904Z,977
2023-01-15T04:28:30.113Z,977
2023-01-15T04:29:37.298Z,977
2023-01-15T04:30:44.526Z,977
2023-01-15T04:31:51.592Z,977
2023-01-15T04:32:58.508Z,977
2023-01-15T04:34:05.621Z,977
2023-01-15T04:35:12.921Z,977
2023-01-15T04:36:20.199Z,977
2023-01-15T04:37:27.110Z,977
2023-01-15T04:38:34.278Z,977
2023-01-15T04:39:41.419Z,977
2023-01-15T04:40:48.647Z,977
2023-01-15T04:42:00.682Z,977
2023-01-15T04:43:16.071Z,977
2023-01-15T04:44:28.358Z,977
2023-01-15T04:45:35.643Z,977
2023-01-15T04:46:42.672Z,977
2023-01-15T04:47:49.735Z,977
2023-01-15T04:48:56.789Z,977
2023-01-15T04:50:03.920Z,977
2023-01-15T04:51:11.212Z,977
2023-01-15T04:52:18.300Z,977
2023-01-15T04:53:25.333Z,977
2023-01-15T04:54:32.468Z,977
2023-01-15T04:55:39.665Z,977
2023-01-15T04:56:46.827Z,977
2023-01-15T04:57:56.820Z,977
2023-01-15T04:59:04.040Z,977
2023-01-15T05:00:11.154Z,977
2023-01-15T05:01:18.320Z,977
2023-01-15T05:02:25.535Z,977
2023-01-15T05:03:32.560Z,977
2023-01-15T05:04:39.886Z,977
2023-01-15T05:05:46.974Z,977
2023-01-15T05:06:54.103Z,977
2023-01-15T05:08:01.046Z,977
2023-01-15T05:09:08.183Z,977
2023-01-15T05:10:15.352Z,977
2023-01-15T05:11:22.580Z,977
2023-01-15T05:12:29.810Z,977
2023-01-15T05:13:36.781Z,977
2023-01-15T05:14:43.972Z,977
2023-01-15T05:15:51.209Z,977
2023-01-15T05:16:58.128Z,977
2023-01-15T05:18:05.390Z,977
2023-01-15T05:19:12.450Z,977
2023-01-15T05:20:19.563Z,977
2023-01-15T05:21:26.659Z,977
2023-01-15T05:22:33.845Z,977
2023-01-15T05:23:41.036Z,977
2023-01-15T05:24:48.228Z,977
2023-01-15T05:25:55.337Z,977
2023-01-15T05:27:02.283Z,977
2023-01-15T05:28:09.463Z,977
2023-01-15T05:29:16.582Z,977
2023-01-15T05:30:23.812Z,977
2023-01-15T05:31:30.949Z,977
2023-01-15T05:32:38.047Z,977
2023-01-15T05:33:45.214Z,977
2023-01-15T05:34:52.336Z,977
2023-01-15T05:35:59.392Z,977
2023-01-15T05:37:09.525Z,977
2023-01-15T05:38:16.728Z,977
2023-01-15T05:39:24.026Z,977
2023-01-15T05:40:31.060Z,977
2023-01-15T05:41:38.193Z,977
2023-01-15T05:42:50.572Z,977
2023-01-15T05:43:57.905Z,977
2023-01-15T05:45:05.102Z,977
2023-01-15T05:46:12.692Z,977
2023-01-15T05:47:19.867Z,977
2023-01-15T05:48:27.205Z,977
2023-01-15T05:49:34.267Z,977
2023-01-15T05:50:41.280Z,977
2023-01-15T05:51:48.476Z,976
2023-01-15T05:52:55.622Z,976
2023-01-15T05:54:02.593Z,977
2023-01-15T05:55:09.816Z,977
2023-01-15T05:56:16.910Z,976
2023-01-15T05:57:24.032Z,976
2023-01-15T05:58:31.201Z,976
2023-01-15T05:59:38.418Z,976
2023-01-15T06:00:45.488Z,976
2023-01-15T06:01:52.818Z,976
2023-01-15T06:03:00.196Z,976
2023-01-15T06:04:07.264Z,976
2023-01-15T06:05:14.465Z,976
2023-01-15T06:06:21.529Z,976
2023-01-15T06:07:28.708Z,976
2023-01-15T06:08:35.977Z,976
2023-01-15T06:09:43.068Z,976
2023-01-15T06:10:50.204Z,976
2023-01-15T06:11:57.257Z,976
2023-01-15T06:13:04.347Z,976
2023-01-15T06:14:11.512Z,976
2023-01-15T06:15:18.692Z,976
2023-01-15T06:16:25.846Z,976
2023-01-15T06:17:33.015Z,976
2023-01-15T06:18:40.135Z,976
2023-01-15T06:19:47.297Z,976
2023-01-15T06:20:54.362Z,976
2023-01-15T06:22:01.574Z,976
2023-01-15T06:23:08.605Z,976
2023-01-15T06:24:15.629Z,976
2023-01-15T06:25:22.744Z,976
2023-01-15T06:26:29.908Z,976
2023-01-15T06:27:37.097Z,976
2023-01-15T06:28:44.227Z,976
2023-01-15T06:29:51.429Z,976
2023-01-15T06:30:58.369Z,976
2023-01-15T06:32:05.471Z,976
2023-01-15T06:33:12.707Z,976
2023-01-15T06:34:19.828Z,976
2023-01-15T06:35:26.965Z,976
2023-01-15T06:36:34.047Z,976
2023-01-15T06:37:41.277Z,976
2023-01-15T06:38:48.357Z,976
2023-01-15T06:39:55.527Z,976
2023-01-15T06:41:02.715Z,976
2023-01-15T06:42:09.723Z,976
2023-01-15T06:43:21.962Z,976
2023-01-15T06:44:34.186Z,976
2023-01-15T06:45:46.364Z,976
2023-01-15T06:46:58.515Z,976
2023-01-15T06:48:15.867Z,976
2023-01-15T06:49:23.160Z,976
2023-01-15T06:50:30.185Z,976
2023-01-15T06:51:37.289Z,976
2023-01-15T06:52:44.412Z,976
2023-01-15T06:53:51.545Z,976
2023-01-15T06:54:58.583Z,976
2023-01-15T06:56:05.820Z,976
2023-01-15T06:57:13.111Z,976
2023-01-15T06:58:20.577Z,977
2023-01-15T06:59:27.686Z,977
2023-01-15T07:00:34.948Z,976
2023-01-15T07:01:42.001Z,976
2023-01-15T07:02:49.237Z,976
2023-01-15T07:03:56.451Z,976
2023-01-15T07:05:03.356Z,976
2023-01-15T07:06:10.421Z,977
2023-01-15T07:07:17.577Z,977
2023-01-15T07:08:24.760Z,976
2023-01-15T07:09:32.116Z,977
2023-01-15T07:10:39.044Z,977
2023-01-15T07:11:46.173Z,977
2023-01-15T07:12:53.416Z,977
2023-01-15T07:14:00.853Z,977
2023-01-15T07:15:10.533Z,977
2023-01-15T07:16:17.687Z,977
2023-01-15T07:17:29.888Z,977
2023-01-15T07:18:37.164Z,977
2023-01-15T07:19:44.276Z,977
2023-01-15T07:20:51.412Z,977
2023-01-15T07:21:58.292Z,977
2023-01-15T07:23:05.472Z,977
2023-01-15T07:24:12.644Z,977
2023-01-15T07:25:19.760Z,977
2023-01-15T07:26:27.168Z,977
2023-01-15T07:27:34.060Z,977
2023-01-15T07:28:41.196Z,977
2023-01-15T07:29:48.243Z,977
2023-01-15T07:30:55.425Z,977
2023-01-15T07:32:02.563Z,977
2023-01-15T07:33:09.665Z,977
2023-01-15T07:34:16.740Z,977
2023-01-15T07:35:23.904Z,977
2023-01-15T07:36:31.061Z,977
2023-01-15T07:37:38.236Z,977
2023-01-15T07:38:45.418Z,977
2023-01-15T07:39:52.755Z,977
2023-01-15T07:40:59.969Z,977
2023-01-15T07:42:12.435Z,977
2023-01-15T07:43:24.712Z,977
2023-01-15T07:44:36.712Z,977
2023-01-15T07:45:49.034Z,977
2023-01-15T07:47:01.119Z,976
2023-01-15T07:48:16.517Z,976
2023-01-15T07:49:28.667Z,976
2023-01-15T07:50:40.858Z,976
2023-01-15T07:51:48.137Z,976
2023-01-15T07:52:55.366Z,976
2023-01-15T07:54:02.400Z,976
2023-01-15T07:55:09.375Z,976
2023-01-15T07:56:16.521Z,976
2023-01-15T07:57:23.703Z,976
2023-01-15T07:58:30.860Z,976
2023-01-15T07:59:38.080Z,976
2023-01-15T08:00:45.402Z,976
2023-01-15T08:01:52.564Z,976
2023-01-15T08:02:59.292Z,976
2023-01-15T08:04:06.572Z,976
2023-01-15T08:05:16.688Z,976
2023-01-15T08:06:23.773Z,976
2023-01-15T08:07:30.960Z,976
2023-01-15T08:08:41.163Z,976
2023-01-15T08:09:48.377Z,976
2023-01-15T08:10:55.539Z,976
2023-01-15T08:12:08.163Z,976
2023-01-15T08:13:20.245Z,976
2023-01-15T08:14:32.550Z,976
2023-01-15T08:15:44.795Z,976
2023-01-15T08:16:51.871Z,976
2023-01-15T08:17:58.942Z,976
2023-01-15T08:19:06.091Z,976
2023-01-15T08:20:13.504Z,976
2023-01-15T08:21:20.315Z,976
2023-01-15T08:22:27.481Z,976
2023-01-15T08:23:34.616Z,976
2023-01-15T08:24:41.784Z,976
2023-01-15T08:25:49.156Z,976
2023-01-15T08:26:56.211Z,976
2023-01-15T08:28:03.506Z,976
2023-01-15T08:29:10.685Z,976
2023-01-15T08:30:17.855Z,976
2023-01-15T08:31:25.134Z,976
2023-01-15T08:32:32.407Z,976
2023-01-15T08:33:39.747Z,976
2023-01-15T08:34:46.578Z,976
2023-01-15T08:35:54.035Z,976
2023-01-15T08:37:01.259Z,976
2023-01-15T08:38:08.331Z,976
2023-01-15T08:39:15.642Z,976
2023-01-15T08:40:22.771Z,976
2023-01-15T08:41:29.815Z,976
2023-01-15T08:42:36.989Z,976
2023-01-15T08:43:44.107Z,976
2023-01-15T08:44:51.335Z,976
2023-01-15T08:45:58.674Z,976
2023-01-15T08:47:06.052Z,976
2023-01-15T08:48:13.087Z,976
2023-01-15T08:49:20.252Z,976
2023-01-15T08:50:27.375Z,976
2023-01-15T08:51:34.543Z,976
2023-01-15T08:52:41.918Z,976
2023-01-15T08:53:49.711Z,976
2023-01-15T08:54:57.009Z,976
2023-01-15T08:56:03.943Z,976
2023-01-15T08:57:16.071Z,976
2023-01-15T08:58:23.349Z,976
2023-01-15T08:59:33.454Z,976
2023-01-15T09:00:40.691Z,976
2023-01-15T09:01:47.950Z,976
2023-01-15T09:02:55.010Z,976
2023-01-15T09:04:01.981Z,976
2023-01-15T09:05:10.097Z,976
2023-01-15T09:06:17.269Z,976
2023-01-15T09:07:24.537Z,976
2023-01-15T09:08:31.568Z,976
2023-01-15T09:09:38.801Z,976
2023-01-15T09:10:45.898Z,976
2023-01-15T09:11:53.099Z,976
2023-01-15T09:12:59.956Z,976
2023-01-15T09:14:07.104Z,976
2023-01-15T09:15:14.306Z,976
2023-01-15T09:16:21.514Z,976
2023-01-15T09:17:28.780Z,976
2023-01-15T09:18:36.038Z,976
2023-01-15T09:19:42.891Z,976
2023-01-15T09:20:50.078Z,976
2023-01-15T09:21:57.178Z,976
2023-01-15T09:23:04.379Z,976
2023-01-15T09:24:11.346Z,976
2023-01-15T09:25:18.454Z,976
2023-01-15T09:26:25.565Z,976
2023-01-15T09:27:32.748Z,976
2023-01-15T09:28:39.897Z,976
2023-01-15T09:29:47.087Z,976
2023-01-15T09:30:54.310Z,976
2023-01-15T09:32:01.595Z,976
2023-01-15T09:33:08.746Z,975
2023-01-15T09:34:15.933Z,975
2023-01-15T09:35:23.105Z,975
2023-01-15T09:36:30.169Z,975
2023-01-15T09:37:37.377Z,975
2023-01-15T09:38:44.531Z,975
2023-01-15T09:39:51.714Z,975
2023-01-15T09:40:58.831Z,975
2023-01-15T09:42:05.758Z,975
2023-01-15T09:43:15.451Z,975
2023-01-15T09:44:27.663Z,975
2023-01-15T09:45:40.013Z,975
2023-01-15T09:46:47.075Z,975
2023-01-15T09:47:59.250Z,975
2023-01-15T09:49:11.494Z,975
2023-01-15T09:50:23.931Z,975
2023-01-15T09:51:39.631Z,975
2023-01-15T09:52:56.899Z,975
2023-01-15T09:54:12.043Z,975
2023-01-15T09:55:21.789Z,975
2023-01-15T09:56:28.914Z,975
2023-01-15T09:57:36.311Z,975
2023-01-15T09:58:43.466Z,975
2023-01-15T09:59:50.378Z,975
2023-01-15T10:00:57.631Z,975
2023-01-15T10:02:04.570Z,975
2023-01-15T10:03:16.851Z,975
2023-01-15T10:04:29.088Z,975
2023-01-15T10:05:41.322Z,975
2023-01-15T10:06:48.628Z,975
2023-01-15T10:07:55.592Z,975
2023-01-15T10:09:07.974Z,975
2023-01-15T10:10:18.017Z,975
2023-01-15T10:11:22.470Z,975
2023-01-15T10:12:32.750Z,975
2023-01-15T10:13:39.842Z,975
2023-01-15T10:14:52.610Z,975
2023-01-15T10:16:09.912Z,975
2023-01-15T10:17:17.235Z,975
2023-01-15T10:18:32.319Z,975
2023-01-15T10:19:44.540Z,975
2023-01-15T10:20:46.669Z,975
2023-01-15T10:21:58.832Z,975
2023-01-15T10:23:14.516Z,975
2023-01-15T10:24:31.844Z,975
2023-01-15T10:25:42.130Z,975
2023-01-15T10:26:54.275Z,975
2023-01-15T10:28:01.278Z,975
2023-01-15T10:29:11.002Z,975
2023-01-15T10:30:21.206Z,975
2023-01-15T10:31:36.500Z,975
2023-01-15T10:33:01.329Z,975
2023-01-15T10:33:59.010Z,975
2023-01-15T10:35:14.094Z,975
2023-01-15T10:36:31.459Z,975
2023-01-15T10:37:46.295Z,975
2023-01-15T10:39:03.934Z,975
2023-01-15T10:40:21.277Z,975
2023-01-15T10:41:38.758Z,975
2023-01-15T10:42:56.047Z,975
2023-01-15T10:44:13.793Z,975
2023-01-15T10:45:28.423Z,975
2023-01-15T10:46:38.328Z,975
2023-01-15T10:47:45.306Z,975
2023-01-15T10:48:52.600Z,975
2023-01-15T10:49:59.605Z,975
2023-01-15T10:51:06.558Z,975
2023-01-15T10:52:16.301Z,975
2023-01-15T10:53:26.415Z,975
2023-01-15T10:54:38.800Z,975
2023-01-15T10:55:45.861Z,975
2023-01-15T10:57:01.044Z,975
2023-01-15T10:58:10.477Z,975
2023-01-15T10:59:18.409Z,974
2023-01-15T11:00:38.737Z,975
2023-01-15T11:01:46.078Z,975
2023-01-15T11:02:56.189Z,974
2023-01-15T11:04:06.207Z,974
2023-01-15T11:05:16.455Z,974
2023-01-15T11:06:23.451Z,974
2023-01-15T11:07:30.619Z,974
2023-01-15T11:09:07.727Z,974
2023-01-15T11:09:55.121Z,974
2023-01-15T11:11:02.268Z,974
2023-01-15T11:12:17.589Z,974
2023-01-15T11:13:29.808Z,974
2023-01-15T11:14:42.069Z,974
2023-01-15T11:15:54.414Z,974
2023-01-15T11:17:06.490Z,974
2023-01-15T11:18:18.814Z,974
2023-01-15T11:19:30.817Z,974
2023-01-15T11:20:40.993Z,974
2023-01-15T11:21:48.146Z,974
2023-01-15T11:22:55.366Z,974
2023-01-15T11:24:02.401Z,974
2023-01-15T11:25:10.003Z,974
2023-01-15T11:26:17.123Z,974
2023-01-15T11:27:27.405Z,974
2023-01-15T11:28:34.575Z,974
2023-01-15T11:29:41.726Z,974
2023-01-15T11:30:48.802Z,974
2023-01-15T11:31:59.137Z,974
2023-01-15T11:33:06.204Z,974
2023-01-15T11:34:23.457Z,974
2023-01-15T11:35:30.553Z,974
2023-01-15T11:36:37.805Z,974
2023-01-15T11:37:45.115Z,974
2023-01-15T11:38:52.042Z,974
2023-01-15T11:39:59.177Z,974
2023-01-15T11:41:06.134Z,974
2023-01-15T11:42:23.609Z,974
2023-01-15T11:43:35.766Z,974
2023-01-15T11:44:47.955Z,974
2023-01-15T11:46:00.310Z,974
2023-01-15T11:47:19.995Z,974
2023-01-15T11:48:29.777Z,974
2023-01-15T11:49:47.125Z,974
2023-01-15T11:50:59.485Z,974
2023-01-15T11:52:12.457Z,974
2023-01-15T11:53:25.086Z,974
2023-01-15T11:54:32.317Z,974
2023-01-15T11:55:44.605Z,974
2023-01-15T11:56:56.872Z,974
2023-01-15T11:58:03.850Z,974
2023-01-15T11:59:10.897Z,974
2023-01-15T12:00:20.576Z,974
2023-01-15T12:01:32.948Z,974
2023-01-15T12:02:39.957Z,974
2023-01-15T12:03:49.756Z,974
2023-01-15T12:04:56.793Z,974
2023-01-15T12:06:03.902Z,974
2023-01-15T12:07:11.118Z,974
2023-01-15T12:08:18.202Z,974
2023-01-15T12:09:28.373Z,974
2023-01-15T12:10:38.610Z,974
2023-01-15T12:11:53.878Z,974
2023-01-15T12:13:08.540Z,974
2023-01-15T12:14:18.253Z,974
2023-01-15T12:15:35.632Z,974
2023-01-15T12:16:47.874Z,974
2023-01-15T12:18:05.122Z,974
2023-01-15T12:19:22.390Z,974
2023-01-15T12:20:39.818Z,974
2023-01-15T12:21:52.090Z,974
2023-01-15T12:23:08.922Z,974
2023-01-15T12:24:22.518Z,974
2023-01-15T12:25:34.711Z,974
2023-01-15T12:26:41.992Z,974
2023-01-15T12:27:51.657Z,974
2023-01-15T12:28:58.863Z,974
2023-01-15T12:30:08.858Z,974
2023-01-15T12:31:21.130Z,974
2023-01-15T12:32:28.119Z,973
2023-01-15T12:33:35.275Z,974
2023-01-15T12:34:42.472Z,973
2023-01-15T12:35:59.980Z,974
2023-01-15T12:37:07.309Z,974
2023-01-15T12:38:19.991Z,974
2023-01-15T12:39:32.292Z,974
2023-01-15T12:40:44.497Z,974
2023-01-15T12:41:51.758Z,974
2023-01-15T12:43:09.390Z,974
2023-01-15T12:44:21.603Z,973
2023-01-15T12:45:44.209Z,973
2023-01-15T12:46:51.148Z,974
2023-01-15T12:47:58.403Z,974
2023-01-15T12:49:16.005Z,973
2023-01-15T12:50:25.676Z,973
2023-01-15T12:51:32.860Z,973
2023-01-15T12:52:48.218Z,973
2023-01-15T12:53:55.292Z,973
2023-01-15T12:55:07.369Z,973
2023-01-15T12:56:19.633Z,973
2023-01-15T12:57:32.078Z,973
2023-01-15T12:58:39.084Z,973
2023-01-15T12:59:51.315Z,973
2023-01-15T13:00:58.787Z,973
2023-01-15T13:02:13.633Z,973
2023-01-15T13:03:20.822Z,973
2023-01-15T13:04:30.965Z,973
2023-01-15T13:05:38.119Z,973
2023-01-15T13:06:50.467Z,973
2023-01-15T13:07:57.411Z,974
2023-01-15T13:09:12.634Z,974
2023-01-15T13:10:22.367Z,974
2023-01-15T13:11:32.118Z,974
2023-01-15T13:12:39.168Z,974
2023-01-15T13:13:46.375Z,974
2023-01-15T13:14:53.742Z,974
2023-01-15T13:16:00.709Z,974
2023-01-15T13:17:10.727Z,974
2023-01-15T13:18:23.313Z,974
2023-01-15T13:19:30.169Z,974
2023-01-15T13:20:42.493Z,974
2023-01-15T13:21:52.287Z,974
2023-01-15T13:22:59.343Z,974
2023-01-15T13:24:11.945Z,974
2023-01-15T13:25:29.816Z,974
2023-01-15T13:26:36.382Z,974
2023-01-15T13:27:51.639Z,974
2023-01-15T13:29:06.922Z,974
2023-01-15T13:30:19.101Z,974
2023-01-15T13:31:31.598Z,974
2023-01-15T13:32:46.642Z,974
2023-01-15T13:33:53.867Z,974
2023-01-15T13:35:01.044Z,973
2023-01-15T13:36:16.643Z,973
2023-01-15T13:37:28.886Z,973
2023-01-15T13:38:39.763Z,973
2023-01-15T13:39:47.657Z,973
2023-01-15T13:40:55.194Z,973
2023-01-15T13:42:02.542Z,973
2023-01-15T13:43:14.874Z,973
2023-01-15T13:44:26.986Z,973
2023-01-15T13:45:34.154Z,973
2023-01-15T13:46:46.402Z,973
2023-01-15T13:48:03.586Z,973
2023-01-15T13:49:16.348Z,973
2023-01-15T13:50:26.531Z,973
2023-01-15T13:51:39.093Z,973
2023-01-15T13:52:45.933Z,973
2023-01-15T13:53:53.348Z,973
2023-01-15T13:55:00.333Z,973
2023-01-15T13:56:17.475Z,973
2023-01-15T13:57:29.957Z,973
2023-01-15T13:58:39.895Z,973
2023-01-15T13:59:55.275Z,973
2023-01-15T14:01:02.349Z,973
2023-01-15T14:02:11.855Z,973
2023-01-15T14:03:27.204Z,973
2023-01-15T14:04:34.415Z,973
2023-01-15T14:05:41.585Z,973
2023-01-15T14:06:48.648Z,973
2023-01-15T14:07:55.860Z,973
2023-01-15T14:09:02.771Z,973
2023-01-15T14:10:11.030Z,973
2023-01-15T14:11:20.635Z,973
2023-01-15T14:12:38.688Z,973
2023-01-15T14:13:54.647Z,973
2023-01-15T14:15:10.033Z,973
2023-01-15T14:16:24.852Z,973
2023-01-15T14:17:40.244Z,973
2023-01-15T14:18:57.517Z,973
2023-01-15T14:20:12.603Z,973
2023-01-15T14:21:28.088Z,973
2023-01-15T14:22:40.758Z,973
2023-01-15T14:23:53.501Z,973
2023-01-15T14:25:08.783Z,973
2023-01-15T14:26:21.928Z,973
2023-01-15T14:27:39.297Z,973
2023-01-15T14:28:54.595Z,973
2023-01-15T14:30:09.810Z,973
2023-01-15T14:31:20.512Z,973
2023-01-15T14:32:37.747Z,973
2023-01-15T14:33:55.066Z,973
2023-01-15T14:35:02.375Z,973
2023-01-15T14:36:09.259Z,973
2023-01-15T14:37:22.039Z,973
2023-01-15T14:38:34.255Z,974
2023-01-15T14:39:41.377Z,974
2023-01-15T14:40:54.254Z,973
2023-01-15T14:42:04.399Z,973
2023-01-15T14:43:19.551Z,974
2023-01-15T14:44:26.654Z,974
2023-01-15T14:45:33.807Z,974
2023-01-15T14:46:44.154Z,974
2023-01-15T14:47:51.230Z,974
2023-01-15T14:48:58.187Z,974
2023-01-15T14:50:05.486Z,974
2023-01-15T14:51:22.971Z,973
2023-01-15T14:52:33.290Z,974
2023-01-15T14:53:40.600Z,973
2023-01-15T14:54:48.138Z,973
2023-01-15T14:55:55.356Z,974
2023-01-15T14:57:05.346Z,974
2023-01-15T14:58:12.502Z,974
2023-01-15T14:59:28.067Z,974
2023-01-15T15:00:40.559Z,974
2023-01-15T15:01:48.133Z,974
2023-01-15T15:02:54.949Z,974
2023-01-15T15:04:02.030Z,974
2023-01-15T15:05:14.624Z,974
2023-01-15T15:06:21.689Z,974
2023-01-15T15:07:29.106Z,974
2023-01-15T15:08:38.844Z,974
2023-01-15T15:09:45.727Z,974
2023-01-15T15:10:57.894Z,973
2023-01-15T15:12:04.985Z,973
2023-01-15T15:13:22.406Z,973
2023-01-15T15:14:33.418Z,973
2023-01-15T15:15:41.512Z,973
2023-01-15T15:16:51.451Z,973
2023-01-15T15:17:58.758Z,973
2023-01-15T15:19:17.566Z,973
2023-01-15T15:20:29.601Z,973
2023-01-15T15:21:47.302Z,973
2023-01-15T15:22:54.462Z,973
2023-01-15T15:24:11.774Z,973
2023-01-15T15:25:26.562Z,974
2023-01-15T15:26:34.510Z,974
2023-01-15T15:27:41.956Z,974
2023-01-15T15:28:49.035Z,974
2023-01-15T15:29:58.620Z,974
2023-01-15T15:31:09.253Z,974
2023-01-15T15:32:17.413Z,974
2023-01-15T15:33:24.537Z,974
2023-01-15T15:34:36.677Z,974
2023-01-15T15:35:43.840Z,974
2023-01-15T15:36:50.961Z,974
2023-01-15T15:37:58.353Z,974
2023-01-15T15:39:06.621Z,974
2023-01-15T15:40:24.195Z,974
2023-01-15T15:41:36.270Z,974
2023-01-15T15:42:48.522Z,974
2023-01-15T15:44:08.925Z,974
2023-01-15T15:45:21.119Z,973
2023-01-15T15:46:33.277Z,973
2023-01-15T15:47:45.639Z,974
2023-01-15T15:49:01.281Z,974
2023-01-15T15:50:08.432Z,974
2023-01-15T15:51:25.897Z,974
2023-01-15T15:52:38.937Z,974